sensor_id;sensor_type;location;lat;lon;timestamp;P1;durP1;ratioP1;P2;durP2;ratioP2
75496;SDS011;64074;47.540;19.072;2023-02-28T00:00:00;22.10;;;10.23;;
75496;SDS011;64074;47.540;19.072;2023-02-28T00:03:24;24.60;;;10.97;;
75496;SDS011;64074;47.540;19.072;2023-02-28T00:06:52;26.13;;;11.10;;
75496;SDS011;64074;47.540;19.072;2023-02-28T00:10:13;23.67;;;10.75;;
75496;SDS011;64074;47.540;19.072;2023-02-28T00:13:30;20.83;;;10.63;;
75496;SDS011;64074;47.540;19.072;2023-02-28T00:16:51;23.88;;;11.38;;
75496;SDS011;64074;47.540;19.072;2023-02-28T00:19:58;24.93;;;10.23;;
75496;SDS011;64074;47.540;19.072;2023-02-28T00:23:15;22.27;;;10.57;;
75496;SDS011;64074;47.540;19.072;2023-02-28T00:26:24;22.65;;;10.13;;
75496;SDS011;64074;47.540;19.072;2023-02-28T00:29:39;23.65;;;11.18;;
75496;SDS011;64074;47.540;19.072;2023-02-28T00:33:09;26.00;;;11.20;;
75496;SDS011;64074;47.540;19.072;2023-02-28T00:36:17;23.53;;;10.70;;
75496;SDS011;64074;47.540;19.072;2023-02-28T00:39:21;26.47;;;11.83;;
75496;SDS011;64074;47.540;19.072;2023-02-28T00:42:33;22.38;;;10.18;;
75496;SDS011;64074;47.540;19.072;2023-02-28T00:45:42;22.25;;;10.70;;
75496;SDS011;64074;47.540;19.072;2023-02-28T00:48:49;21.08;;;10.27;;
75496;SDS011;64074;47.540;19.072;2023-02-28T00:51:53;23.23;;;10.80;;
75496;SDS011;64074;47.540;19.072;2023-02-28T00:55:08;20.80;;;10.53;;
75496;SDS011;64074;47.540;19.072;2023-02-28T00:58:18;21.73;;;10.30;;
75496;SDS011;64074;47.540;19.072;2023-02-28T01:01:39;23.25;;;10.32;;
75496;SDS011;64074;47.540;19.072;2023-02-28T01:04:43;21.73;;;9.60;;
75496;SDS011;64074;47.540;19.072;2023-02-28T01:07:47;19.87;;;9.60;;
75496;SDS011;64074;47.540;19.072;2023-02-28T01:10:57;20.23;;;10.60;;
75496;SDS011;64074;47.540;19.072;2023-02-28T01:14:29;21.83;;;10.35;;
75496;SDS011;64074;47.540;19.072;2023-02-28T01:17:40;22.33;;;10.10;;
75496;SDS011;64074;47.540;19.072;2023-02-28T01:20:49;24.40;;;10.65;;
75496;SDS011;64074;47.540;19.072;2023-02-28T01:24:01;26.07;;;12.13;;
75496;SDS011;64074;47.540;19.072;2023-02-28T01:27:11;24.80;;;10.87;;
75496;SDS011;64074;47.540;19.072;2023-02-28T01:30:25;23.30;;;11.45;;
75496;SDS011;64074;47.540;19.072;2023-02-28T01:33:43;25.02;;;10.65;;
75496;SDS011;64074;47.540;19.072;2023-02-28T01:37:05;29.23;;;11.25;;
75496;SDS011;64074;47.540;19.072;2023-02-28T01:40:25;23.57;;;10.83;;
75496;SDS011;64074;47.540;19.072;2023-02-28T01:44:00;21.97;;;10.30;;
75496;SDS011;64074;47.540;19.072;2023-02-28T01:47:16;19.65;;;9.38;;
75496;SDS011;64074;47.540;19.072;2023-02-28T01:50:31;18.73;;;9.88;;
75496;SDS011;64074;47.540;19.072;2023-02-28T01:53:54;21.30;;;10.65;;
75496;SDS011;64074;47.540;19.072;2023-02-28T01:57:18;22.10;;;10.13;;
75496;SDS011;64074;47.540;19.072;2023-02-28T02:00:29;26.33;;;12.00;;
75496;SDS011;64074;47.540;19.072;2023-02-28T02:03:34;22.38;;;10.85;;
75496;SDS011;64074;47.540;19.072;2023-02-28T02:06:45;24.00;;;11.65;;
75496;SDS011;64074;47.540;19.072;2023-02-28T02:10:02;25.20;;;10.85;;
75496;SDS011;64074;47.540;19.072;2023-02-28T02:17:19;21.17;;;10.30;;
75496;SDS011;64074;47.540;19.072;2023-02-28T02:21:03;22.20;;;9.57;;
75496;SDS011;64074;47.540;19.072;2023-02-28T02:24:30;26.02;;;10.40;;
75496;SDS011;64074;47.540;19.072;2023-02-28T02:41:44;21.25;;;10.00;;
75496;SDS011;64074;47.540;19.072;2023-02-28T02:45:21;20.45;;;10.07;;
75496;SDS011;64074;47.540;19.072;2023-02-28T02:48:46;23.77;;;10.53;;
75496;SDS011;64074;47.540;19.072;2023-02-28T02:52:06;21.30;;;10.53;;
75496;SDS011;64074;47.540;19.072;2023-02-28T02:55:27;21.20;;;9.98;;
75496;SDS011;64074;47.540;19.072;2023-02-28T02:58:34;21.65;;;10.18;;
75496;SDS011;64074;47.540;19.072;2023-02-28T03:01:53;22.55;;;10.80;;
75496;SDS011;64074;47.540;19.072;2023-02-28T03:05:35;21.33;;;10.23;;
75496;SDS011;64074;47.540;19.072;2023-02-28T03:09:03;20.03;;;9.90;;
75496;SDS011;64074;47.540;19.072;2023-02-28T03:12:13;20.63;;;10.35;;
75496;SDS011;64074;47.540;19.072;2023-02-28T03:32:55;23.77;;;10.35;;
75496;SDS011;64074;47.540;19.072;2023-02-28T03:36:15;20.20;;;10.07;;
75496;SDS011;64074;47.540;19.072;2023-02-28T03:39:31;22.50;;;10.40;;
75496;SDS011;64074;47.540;19.072;2023-02-28T03:42:48;18.33;;;9.10;;
75496;SDS011;64074;47.540;19.072;2023-02-28T03:46:05;20.90;;;9.25;;
75496;SDS011;64074;47.540;19.072;2023-02-28T03:49:20;20.75;;;9.73;;
75496;SDS011;64074;47.540;19.072;2023-02-28T03:52:58;20.35;;;9.30;;
75496;SDS011;64074;47.540;19.072;2023-02-28T03:56:24;20.10;;;8.40;;
75496;SDS011;64074;47.540;19.072;2023-02-28T04:00:30;15.83;;;7.93;;
75496;SDS011;64074;47.540;19.072;2023-02-28T04:03:44;17.15;;;7.60;;
75496;SDS011;64074;47.540;19.072;2023-02-28T04:07:11;16.15;;;7.68;;
75496;SDS011;64074;47.540;19.072;2023-02-28T04:10:31;15.52;;;7.38;;
75496;SDS011;64074;47.540;19.072;2023-02-28T04:13:41;14.33;;;6.63;;
75496;SDS011;64074;47.540;19.072;2023-02-28T04:17:15;18.17;;;6.70;;
75496;SDS011;64074;47.540;19.072;2023-02-28T04:20:36;14.60;;;6.50;;
75496;SDS011;64074;47.540;19.072;2023-02-28T04:24:00;13.18;;;6.40;;
75496;SDS011;64074;47.540;19.072;2023-02-28T04:27:21;14.32;;;6.45;;
75496;SDS011;64074;47.540;19.072;2023-02-28T04:30:44;14.23;;;6.10;;
75496;SDS011;64074;47.540;19.072;2023-02-28T04:34:05;12.57;;;6.27;;
75496;SDS011;64074;47.540;19.072;2023-02-28T04:37:20;12.77;;;6.07;;
75496;SDS011;64074;47.540;19.072;2023-02-28T04:40:37;13.85;;;6.40;;
75496;SDS011;64074;47.540;19.072;2023-02-28T04:44:11;14.65;;;6.60;;
75496;SDS011;64074;47.540;19.072;2023-02-28T04:47:27;12.00;;;6.47;;
75496;SDS011;64074;47.540;19.072;2023-02-28T04:50:30;15.47;;;6.77;;
75496;SDS011;64074;47.540;19.072;2023-02-28T04:53:40;14.63;;;7.07;;
75496;SDS011;64074;47.540;19.072;2023-02-28T04:56:47;13.45;;;6.72;;
75496;SDS011;64074;47.540;19.072;2023-02-28T04:59:53;14.15;;;6.63;;
75496;SDS011;64074;47.540;19.072;2023-02-28T05:03:01;12.03;;;6.03;;
75496;SDS011;64074;47.540;19.072;2023-02-28T05:06:11;13.70;;;6.30;;
75496;SDS011;64074;47.540;19.072;2023-02-28T05:09:21;13.63;;;6.28;;
75496;SDS011;64074;47.540;19.072;2023-02-28T05:12:25;12.25;;;6.00;;
75496;SDS011;64074;47.540;19.072;2023-02-28T05:15:39;13.15;;;6.10;;
75496;SDS011;64074;47.540;19.072;2023-02-28T05:18:53;13.20;;;6.40;;
75496;SDS011;64074;47.540;19.072;2023-02-28T05:22:12;13.73;;;6.20;;
75496;SDS011;64074;47.540;19.072;2023-02-28T05:25:27;15.88;;;7.07;;
75496;SDS011;64074;47.540;19.072;2023-02-28T05:28:51;14.27;;;6.93;;
75496;SDS011;64074;47.540;19.072;2023-02-28T05:32:14;13.80;;;6.63;;
75496;SDS011;64074;47.540;19.072;2023-02-28T05:35:39;10.03;;;5.67;;
75496;SDS011;64074;47.540;19.072;2023-02-28T05:38:55;13.80;;;6.70;;
75496;SDS011;64074;47.540;19.072;2023-02-28T05:42:23;12.93;;;5.65;;
75496;SDS011;64074;47.540;19.072;2023-02-28T05:45:33;15.52;;;5.95;;
75496;SDS011;64074;47.540;19.072;2023-02-28T05:48:37;12.23;;;5.85;;
75496;SDS011;64074;47.540;19.072;2023-02-28T05:51:42;11.17;;;6.00;;
75496;SDS011;64074;47.540;19.072;2023-02-28T05:54:51;11.73;;;5.63;;
75496;SDS011;64074;47.540;19.072;2023-02-28T05:58:22;12.90;;;5.78;;
75496;SDS011;64074;47.540;19.072;2023-02-28T06:01:46;12.25;;;6.00;;
75496;SDS011;64074;47.540;19.072;2023-02-28T06:05:05;11.48;;;5.53;;
75496;SDS011;64074;47.540;19.072;2023-02-28T06:08:25;14.80;;;6.70;;
75496;SDS011;64074;47.540;19.072;2023-02-28T06:11:45;14.90;;;6.73;;
75496;SDS011;64074;47.540;19.072;2023-02-28T06:15:05;11.57;;;5.82;;
75496;SDS011;64074;47.540;19.072;2023-02-28T06:23:44;11.55;;;5.47;;
75496;SDS011;64074;47.540;19.072;2023-02-28T06:26:54;13.37;;;6.50;;
75496;SDS011;64074;47.540;19.072;2023-02-28T06:30:21;10.60;;;5.70;;
75496;SDS011;64074;47.540;19.072;2023-02-28T06:33:37;11.98;;;5.28;;
75496;SDS011;64074;47.540;19.072;2023-02-28T06:36:45;11.07;;;5.47;;
75496;SDS011;64074;47.540;19.072;2023-02-28T06:39:53;10.50;;;4.90;;
75496;SDS011;64074;47.540;19.072;2023-02-28T06:43:05;10.57;;;5.13;;
75496;SDS011;64074;47.540;19.072;2023-02-28T06:46:25;10.87;;;5.17;;
75496;SDS011;64074;47.540;19.072;2023-02-28T06:49:44;11.00;;;5.07;;
75496;SDS011;64074;47.540;19.072;2023-02-28T06:53:07;12.55;;;5.20;;
75496;SDS011;64074;47.540;19.072;2023-02-28T06:56:17;13.20;;;5.70;;
75496;SDS011;64074;47.540;19.072;2023-02-28T06:59:29;12.33;;;5.60;;
75496;SDS011;64074;47.540;19.072;2023-02-28T07:03:06;11.67;;;5.70;;
75496;SDS011;64074;47.540;19.072;2023-02-28T07:06:19;12.32;;;5.32;;
75496;SDS011;64074;47.540;19.072;2023-02-28T07:09:31;12.27;;;5.57;;
75496;SDS011;64074;47.540;19.072;2023-02-28T07:12:49;10.38;;;5.10;;
75496;SDS011;64074;47.540;19.072;2023-02-28T07:16:27;10.07;;;4.80;;
75496;SDS011;64074;47.540;19.072;2023-02-28T07:19:52;10.63;;;5.40;;
75496;SDS011;64074;47.540;19.072;2023-02-28T07:23:14;12.82;;;5.50;;
75496;SDS011;64074;47.540;19.072;2023-02-28T07:26:35;15.65;;;7.57;;
75496;SDS011;64074;47.540;19.072;2023-02-28T07:34:42;12.87;;;5.37;;
75496;SDS011;64074;47.540;19.072;2023-02-28T07:42:15;12.93;;;5.30;;
75496;SDS011;64074;47.540;19.072;2023-02-28T07:45:20;11.82;;;5.55;;
75496;SDS011;64074;47.540;19.072;2023-02-28T07:53:17;10.13;;;5.40;;
75496;SDS011;64074;47.540;19.072;2023-02-28T08:00:07;15.38;;;5.93;;
75496;SDS011;64074;47.540;19.072;2023-02-28T08:07:35;12.50;;;5.75;;
75496;SDS011;64074;47.540;19.072;2023-02-28T08:10:49;13.03;;;6.83;;
75496;SDS011;64074;47.540;19.072;2023-02-28T08:13:54;13.03;;;6.27;;
75496;SDS011;64074;47.540;19.072;2023-02-28T08:17:04;12.65;;;5.93;;
75496;SDS011;64074;47.540;19.072;2023-02-28T08:20:50;23.35;;;9.15;;
75496;SDS011;64074;47.540;19.072;2023-02-28T08:24:04;10.80;;;5.68;;
75496;SDS011;64074;47.540;19.072;2023-02-28T08:27:18;9.97;;;5.20;;
75496;SDS011;64074;47.540;19.072;2023-02-28T08:30:30;12.57;;;5.73;;
75496;SDS011;64074;47.540;19.072;2023-02-28T08:33:54;12.68;;;6.38;;
75496;SDS011;64074;47.540;19.072;2023-02-28T08:37:08;14.25;;;6.20;;
75496;SDS011;64074;47.540;19.072;2023-02-28T08:47:46;13.27;;;5.93;;
75496;SDS011;64074;47.540;19.072;2023-02-28T08:58:28;11.52;;;5.18;;
75496;SDS011;64074;47.540;19.072;2023-02-28T09:09:07;17.05;;;6.38;;
75496;SDS011;64074;47.540;19.072;2023-02-28T09:12:25;10.98;;;5.15;;
75496;SDS011;64074;47.540;19.072;2023-02-28T09:19:14;9.47;;;4.93;;
75496;SDS011;64074;47.540;19.072;2023-02-28T09:22:17;11.57;;;5.00;;
75496;SDS011;64074;47.540;19.072;2023-02-28T09:25:25;9.50;;;4.35;;
75496;SDS011;64074;47.540;19.072;2023-02-28T09:28:35;9.48;;;4.93;;
75496;SDS011;64074;47.540;19.072;2023-02-28T09:31:49;12.07;;;4.55;;
75496;SDS011;64074;47.540;19.072;2023-02-28T09:43:59;8.38;;;4.50;;
75496;SDS011;64074;47.540;19.072;2023-02-28T09:47:14;8.50;;;4.20;;
75496;SDS011;64074;47.540;19.072;2023-02-28T10:14:49;11.90;;;4.63;;
75496;SDS011;64074;47.540;19.072;2023-02-28T10:29:04;10.77;;;5.15;;
75496;SDS011;64074;47.540;19.072;2023-02-28T10:32:22;10.57;;;4.80;;
75496;SDS011;64074;47.540;19.072;2023-02-28T11:00:16;8.38;;;4.30;;
75496;SDS011;64074;47.540;19.072;2023-02-28T11:03:40;8.77;;;4.03;;
75496;SDS011;64074;47.540;19.072;2023-02-28T11:11:03;8.30;;;4.03;;
75496;SDS011;64074;47.540;19.072;2023-02-28T11:14:20;10.57;;;4.10;;
75496;SDS011;64074;47.540;19.072;2023-02-28T11:17:38;10.65;;;4.55;;
75496;SDS011;64074;47.540;19.072;2023-02-28T11:21:04;8.98;;;4.50;;
75496;SDS011;64074;47.540;19.072;2023-02-28T11:24:22;9.57;;;4.63;;
75496;SDS011;64074;47.540;19.072;2023-02-28T11:27:53;9.70;;;5.23;;
75496;SDS011;64074;47.540;19.072;2023-02-28T11:34:30;9.45;;;4.90;;
75496;SDS011;64074;47.540;19.072;2023-02-28T11:37:44;11.68;;;6.88;;
75496;SDS011;64074;47.540;19.072;2023-02-28T11:41:05;9.50;;;5.05;;
75496;SDS011;64074;47.540;19.072;2023-02-28T12:01:07;10.37;;;5.37;;
75496;SDS011;64074;47.540;19.072;2023-02-28T12:08:03;9.77;;;5.07;;
75496;SDS011;64074;47.540;19.072;2023-02-28T12:19:42;10.03;;;5.20;;
75496;SDS011;64074;47.540;19.072;2023-02-28T12:23:26;9.37;;;4.93;;
75496;SDS011;64074;47.540;19.072;2023-02-28T12:26:46;11.10;;;5.97;;
75496;SDS011;64074;47.540;19.072;2023-02-28T12:33:38;10.88;;;5.20;;
75496;SDS011;64074;47.540;19.072;2023-02-28T12:45:55;10.32;;;4.97;;
75496;SDS011;64074;47.540;19.072;2023-02-28T12:49:29;9.77;;;5.32;;
75496;SDS011;64074;47.540;19.072;2023-02-28T12:52:52;9.60;;;5.07;;
75496;SDS011;64074;47.540;19.072;2023-02-28T13:11:22;7.57;;;4.00;;
75496;SDS011;64074;47.540;19.072;2023-02-28T13:18:34;9.70;;;4.63;;
75496;SDS011;64074;47.540;19.072;2023-02-28T13:21:51;8.88;;;4.93;;
75496;SDS011;64074;47.540;19.072;2023-02-28T13:35:35;10.60;;;5.00;;
75496;SDS011;64074;47.540;19.072;2023-02-28T13:38:55;11.27;;;4.90;;
75496;SDS011;64074;47.540;19.072;2023-02-28T13:42:23;14.38;;;5.07;;
75496;SDS011;64074;47.540;19.072;2023-02-28T13:45:34;9.23;;;4.30;;
75496;SDS011;64074;47.540;19.072;2023-02-28T13:48:47;7.23;;;4.37;;
75496;SDS011;64074;47.540;19.072;2023-02-28T13:52:21;5.80;;;3.97;;
75496;SDS011;64074;47.540;19.072;2023-02-28T13:59:20;6.93;;;3.90;;
75496;SDS011;64074;47.540;19.072;2023-02-28T14:07:32;8.53;;;4.73;;
75496;SDS011;64074;47.540;19.072;2023-02-28T14:10:46;7.60;;;4.80;;
75496;SDS011;64074;47.540;19.072;2023-02-28T14:13:52;8.07;;;4.55;;
75496;SDS011;64074;47.540;19.072;2023-02-28T14:16:55;7.35;;;4.40;;
75496;SDS011;64074;47.540;19.072;2023-02-28T14:20:02;9.65;;;4.72;;
75496;SDS011;64074;47.540;19.072;2023-02-28T14:33:39;11.98;;;4.47;;
75496;SDS011;64074;47.540;19.072;2023-02-28T14:36:58;8.57;;;4.30;;
75496;SDS011;64074;47.540;19.072;2023-02-28T14:40:21;10.57;;;5.13;;
75496;SDS011;64074;47.540;19.072;2023-02-28T14:43:54;10.93;;;5.43;;
75496;SDS011;64074;47.540;19.072;2023-02-28T14:47:02;11.15;;;4.72;;
75496;SDS011;64074;47.540;19.072;2023-02-28T14:50:17;9.43;;;4.60;;
75496;SDS011;64074;47.540;19.072;2023-02-28T14:53:26;8.50;;;4.60;;
75496;SDS011;64074;47.540;19.072;2023-02-28T14:56:38;10.10;;;4.93;;
75496;SDS011;64074;47.540;19.072;2023-02-28T15:06:32;8.88;;;4.35;;
75496;SDS011;64074;47.540;19.072;2023-02-28T15:09:36;10.40;;;4.63;;
75496;SDS011;64074;47.540;19.072;2023-02-28T15:12:40;10.93;;;4.53;;
75496;SDS011;64074;47.540;19.072;2023-02-28T15:19:05;9.73;;;4.88;;
75496;SDS011;64074;47.540;19.072;2023-02-28T15:22:17;8.13;;;4.60;;
75496;SDS011;64074;47.540;19.072;2023-02-28T15:25:26;9.32;;;4.43;;
75496;SDS011;64074;47.540;19.072;2023-02-28T15:28:30;9.20;;;4.33;;
75496;SDS011;64074;47.540;19.072;2023-02-28T15:31:55;8.40;;;4.27;;
75496;SDS011;64074;47.540;19.072;2023-02-28T15:38:26;9.95;;;4.97;;
75496;SDS011;64074;47.540;19.072;2023-02-28T15:41:35;10.80;;;4.90;;
75496;SDS011;64074;47.540;19.072;2023-02-28T15:44:43;11.30;;;4.97;;
75496;SDS011;64074;47.540;19.072;2023-02-28T15:47:45;11.30;;;5.30;;
75496;SDS011;64074;47.540;19.072;2023-02-28T15:50:54;13.27;;;5.88;;
75496;SDS011;64074;47.540;19.072;2023-02-28T15:54:05;12.30;;;6.20;;
75496;SDS011;64074;47.540;19.072;2023-02-28T15:57:15;12.13;;;5.78;;
75496;SDS011;64074;47.540;19.072;2023-02-28T16:00:24;13.27;;;6.00;;
75496;SDS011;64074;47.540;19.072;2023-02-28T16:03:34;11.57;;;5.80;;
75496;SDS011;64074;47.540;19.072;2023-02-28T16:06:46;13.85;;;6.00;;
75496;SDS011;64074;47.540;19.072;2023-02-28T16:10:04;16.27;;;6.03;;
75496;SDS011;64074;47.540;19.072;2023-02-28T16:13:12;11.85;;;6.32;;
75496;SDS011;64074;47.540;19.072;2023-02-28T16:16:18;13.17;;;6.13;;
75496;SDS011;64074;47.540;19.072;2023-02-28T16:19:23;13.73;;;6.37;;
75496;SDS011;64074;47.540;19.072;2023-02-28T16:22:27;13.75;;;6.60;;
75496;SDS011;64074;47.540;19.072;2023-02-28T16:25:34;11.90;;;6.03;;
75496;SDS011;64074;47.540;19.072;2023-02-28T16:28:40;12.88;;;5.93;;
75496;SDS011;64074;47.540;19.072;2023-02-28T16:31:42;14.83;;;5.87;;
75496;SDS011;64074;47.540;19.072;2023-02-28T16:34:46;12.03;;;6.03;;
75496;SDS011;64074;47.540;19.072;2023-02-28T16:37:50;13.35;;;5.85;;
75496;SDS011;64074;47.540;19.072;2023-02-28T16:40:57;12.73;;;6.03;;
75496;SDS011;64074;47.540;19.072;2023-02-28T16:44:03;13.50;;;7.18;;
75496;SDS011;64074;47.540;19.072;2023-02-28T16:47:16;13.73;;;6.53;;
75496;SDS011;64074;47.540;19.072;2023-02-28T16:50:21;13.13;;;5.80;;
75496;SDS011;64074;47.540;19.072;2023-02-28T16:53:25;12.82;;;6.65;;
75496;SDS011;64074;47.540;19.072;2023-02-28T16:56:29;11.93;;;5.55;;
75496;SDS011;64074;47.540;19.072;2023-02-28T16:59:35;12.35;;;5.78;;
75496;SDS011;64074;47.540;19.072;2023-02-28T17:02:38;13.33;;;6.07;;
75496;SDS011;64074;47.540;19.072;2023-02-28T17:05:44;14.60;;;6.47;;
75496;SDS011;64074;47.540;19.072;2023-02-28T17:08:48;15.35;;;6.65;;
75496;SDS011;64074;47.540;19.072;2023-02-28T17:11:54;19.05;;;6.95;;
75496;SDS011;64074;47.540;19.072;2023-02-28T17:14:58;14.18;;;6.80;;
75496;SDS011;64074;47.540;19.072;2023-02-28T17:18:02;13.43;;;7.13;;
75496;SDS011;64074;47.540;19.072;2023-02-28T17:21:10;16.43;;;7.60;;
75496;SDS011;64074;47.540;19.072;2023-02-28T17:24:16;14.27;;;6.82;;
75496;SDS011;64074;47.540;19.072;2023-02-28T17:27:31;14.82;;;7.30;;
75496;SDS011;64074;47.540;19.072;2023-02-28T17:30:34;16.35;;;7.30;;
75496;SDS011;64074;47.540;19.072;2023-02-28T17:33:38;16.57;;;7.77;;
75496;SDS011;64074;47.540;19.072;2023-02-28T17:36:40;15.83;;;8.00;;
75496;SDS011;64074;47.540;19.072;2023-02-28T17:39:43;14.23;;;7.07;;
75496;SDS011;64074;47.540;19.072;2023-02-28T17:42:46;16.10;;;7.22;;
75496;SDS011;64074;47.540;19.072;2023-02-28T17:45:49;14.90;;;7.50;;
75496;SDS011;64074;47.540;19.072;2023-02-28T17:48:52;14.57;;;7.30;;
75496;SDS011;64074;47.540;19.072;2023-02-28T17:51:56;17.60;;;7.20;;
75496;SDS011;64074;47.540;19.072;2023-02-28T17:54:59;16.48;;;7.72;;
75496;SDS011;64074;47.540;19.072;2023-02-28T17:58:02;14.52;;;6.95;;
75496;SDS011;64074;47.540;19.072;2023-02-28T18:01:06;15.02;;;7.35;;
75496;SDS011;64074;47.540;19.072;2023-02-28T18:04:09;13.83;;;6.83;;
75496;SDS011;64074;47.540;19.072;2023-02-28T18:07:12;18.33;;;6.97;;
75496;SDS011;64074;47.540;19.072;2023-02-28T18:10:16;12.55;;;6.68;;
75496;SDS011;64074;47.540;19.072;2023-02-28T18:13:23;15.05;;;7.20;;
75496;SDS011;64074;47.540;19.072;2023-02-28T18:16:26;14.70;;;7.65;;
75496;SDS011;64074;47.540;19.072;2023-02-28T18:19:31;13.90;;;7.03;;
75496;SDS011;64074;47.540;19.072;2023-02-28T18:22:35;14.33;;;7.37;;
75496;SDS011;64074;47.540;19.072;2023-02-28T18:25:39;14.90;;;7.57;;
75496;SDS011;64074;47.540;19.072;2023-02-28T18:28:43;15.90;;;7.75;;
75496;SDS011;64074;47.540;19.072;2023-02-28T18:31:48;17.58;;;7.68;;
75496;SDS011;64074;47.540;19.072;2023-02-28T18:34:53;15.93;;;7.93;;
75496;SDS011;64074;47.540;19.072;2023-02-28T18:37:56;14.33;;;7.70;;
75496;SDS011;64074;47.540;19.072;2023-02-28T18:41:00;15.07;;;7.50;;
75496;SDS011;64074;47.540;19.072;2023-02-28T18:44:05;16.27;;;7.90;;
75496;SDS011;64074;47.540;19.072;2023-02-28T18:47:20;16.13;;;8.02;;
75496;SDS011;64074;47.540;19.072;2023-02-28T18:50:26;15.33;;;7.60;;
75496;SDS011;64074;47.540;19.072;2023-02-28T18:53:29;16.23;;;8.40;;
75496;SDS011;64074;47.540;19.072;2023-02-28T18:56:31;21.48;;;9.68;;
75496;SDS011;64074;47.540;19.072;2023-02-28T18:59:35;15.75;;;7.80;;
75496;SDS011;64074;47.540;19.072;2023-02-28T19:02:38;17.02;;;8.23;;
75496;SDS011;64074;47.540;19.072;2023-02-28T19:05:42;15.67;;;8.30;;
75496;SDS011;64074;47.540;19.072;2023-02-28T19:08:45;15.03;;;7.90;;
75496;SDS011;64074;47.540;19.072;2023-02-28T19:11:51;16.77;;;7.97;;
75496;SDS011;64074;47.540;19.072;2023-02-28T19:14:53;18.02;;;8.30;;
75496;SDS011;64074;47.540;19.072;2023-02-28T19:17:56;16.23;;;8.30;;
75496;SDS011;64074;47.540;19.072;2023-02-28T19:20:59;16.33;;;8.80;;
75496;SDS011;64074;47.540;19.072;2023-02-28T19:24:02;19.60;;;8.60;;
75496;SDS011;64074;47.540;19.072;2023-02-28T19:27:05;16.63;;;8.52;;
75496;SDS011;64074;47.540;19.072;2023-02-28T19:30:09;19.30;;;9.20;;
75496;SDS011;64074;47.540;19.072;2023-02-28T19:33:16;21.23;;;8.90;;
75496;SDS011;64074;47.540;19.072;2023-02-28T19:36:19;17.87;;;10.03;;
75496;SDS011;64074;47.540;19.072;2023-02-28T19:39:24;17.47;;;8.80;;
75496;SDS011;64074;47.540;19.072;2023-02-28T19:42:27;17.50;;;8.60;;
75496;SDS011;64074;47.540;19.072;2023-02-28T19:45:35;16.65;;;8.55;;
75496;SDS011;64074;47.540;19.072;2023-02-28T19:48:40;14.40;;;8.13;;
75496;SDS011;64074;47.540;19.072;2023-02-28T19:51:44;16.93;;;7.93;;
75496;SDS011;64074;47.540;19.072;2023-02-28T19:54:47;17.80;;;8.40;;
75496;SDS011;64074;47.540;19.072;2023-02-28T19:57:50;19.45;;;9.18;;
75496;SDS011;64074;47.540;19.072;2023-02-28T20:00:54;21.88;;;10.38;;
75496;SDS011;64074;47.540;19.072;2023-02-28T20:03:57;17.52;;;9.15;;
75496;SDS011;64074;47.540;19.072;2023-02-28T20:07:01;21.57;;;9.87;;
75496;SDS011;64074;47.540;19.072;2023-02-28T20:10:04;18.17;;;9.17;;
75496;SDS011;64074;47.540;19.072;2023-02-28T20:13:11;19.65;;;9.05;;
75496;SDS011;64074;47.540;19.072;2023-02-28T20:16:15;19.13;;;9.65;;
75496;SDS011;64074;47.540;19.072;2023-02-28T20:19:19;20.25;;;9.10;;
75496;SDS011;64074;47.540;19.072;2023-02-28T20:22:22;20.30;;;9.47;;
75496;SDS011;64074;47.540;19.072;2023-02-28T20:25:25;16.17;;;8.37;;
75496;SDS011;64074;47.540;19.072;2023-02-28T20:28:28;17.17;;;8.45;;
75496;SDS011;64074;47.540;19.072;2023-02-28T20:31:31;17.48;;;8.35;;
75496;SDS011;64074;47.540;19.072;2023-02-28T20:34:34;18.00;;;9.10;;
75496;SDS011;64074;47.540;19.072;2023-02-28T20:37:37;18.27;;;8.53;;
75496;SDS011;64074;47.540;19.072;2023-02-28T20:40:41;17.87;;;8.83;;
75496;SDS011;64074;47.540;19.072;2023-02-28T20:43:44;20.63;;;9.30;;
75496;SDS011;64074;47.540;19.072;2023-02-28T20:46:48;21.05;;;9.40;;
75496;SDS011;64074;47.540;19.072;2023-02-28T20:49:52;18.00;;;9.30;;
75496;SDS011;64074;47.540;19.072;2023-02-28T20:52:55;17.73;;;9.47;;
75496;SDS011;64074;47.540;19.072;2023-02-28T20:55:59;18.87;;;8.60;;
75496;SDS011;64074;47.540;19.072;2023-02-28T20:59:03;16.42;;;8.93;;
75496;SDS011;64074;47.540;19.072;2023-02-28T21:02:08;16.00;;;8.00;;
75496;SDS011;64074;47.540;19.072;2023-02-28T21:05:16;15.05;;;7.85;;
75496;SDS011;64074;47.540;19.072;2023-02-28T21:08:19;16.50;;;7.83;;
75496;SDS011;64074;47.540;19.072;2023-02-28T21:11:26;16.70;;;8.53;;
75496;SDS011;64074;47.540;19.072;2023-02-28T21:14:31;17.77;;;8.82;;
75496;SDS011;64074;47.540;19.072;2023-02-28T21:17:35;16.02;;;8.20;;
75496;SDS011;64074;47.540;19.072;2023-02-28T21:20:40;17.17;;;8.93;;
75496;SDS011;64074;47.540;19.072;2023-02-28T21:23:43;17.27;;;8.83;;
75496;SDS011;64074;47.540;19.072;2023-02-28T21:26:49;17.57;;;9.00;;
75496;SDS011;64074;47.540;19.072;2023-02-28T21:29:52;22.17;;;10.02;;
75496;SDS011;64074;47.540;19.072;2023-02-28T21:32:55;17.50;;;8.73;;
75496;SDS011;64074;47.540;19.072;2023-02-28T21:36:09;18.40;;;9.57;;
75496;SDS011;64074;47.540;19.072;2023-02-28T21:39:14;17.97;;;9.87;;
75496;SDS011;64074;47.540;19.072;2023-02-28T21:42:24;19.80;;;10.37;;
75496;SDS011;64074;47.540;19.072;2023-02-28T21:45:27;21.38;;;10.20;;
75496;SDS011;64074;47.540;19.072;2023-02-28T21:48:31;18.58;;;9.90;;
75496;SDS011;64074;47.540;19.072;2023-02-28T21:51:35;17.40;;;9.38;;
75496;SDS011;64074;47.540;19.072;2023-02-28T21:54:40;18.10;;;8.73;;
75496;SDS011;64074;47.540;19.072;2023-02-28T21:57:42;20.30;;;10.27;;
75496;SDS011;64074;47.540;19.072;2023-02-28T22:00:46;18.35;;;9.68;;
75496;SDS011;64074;47.540;19.072;2023-02-28T22:03:51;19.23;;;10.13;;
75496;SDS011;64074;47.540;19.072;2023-02-28T22:06:55;21.17;;;9.90;;
75496;SDS011;64074;47.540;19.072;2023-02-28T22:09:59;19.80;;;10.43;;
75496;SDS011;64074;47.540;19.072;2023-02-28T22:13:02;21.33;;;10.57;;
75496;SDS011;64074;47.540;19.072;2023-02-28T22:16:07;20.30;;;10.00;;
75496;SDS011;64074;47.540;19.072;2023-02-28T22:19:14;17.83;;;9.60;;
75496;SDS011;64074;47.540;19.072;2023-02-28T22:22:17;18.48;;;9.13;;
75496;SDS011;64074;47.540;19.072;2023-02-28T22:25:20;19.77;;;10.13;;
75496;SDS011;64074;47.540;19.072;2023-02-28T22:28:23;20.27;;;10.07;;
75496;SDS011;64074;47.540;19.072;2023-02-28T22:31:28;17.00;;;8.90;;
75496;SDS011;64074;47.540;19.072;2023-02-28T22:34:33;26.42;;;14.60;;
75496;SDS011;64074;47.540;19.072;2023-02-28T22:37:37;24.90;;;14.10;;
75496;SDS011;64074;47.540;19.072;2023-02-28T22:40:41;22.20;;;12.00;;
75496;SDS011;64074;47.540;19.072;2023-02-28T22:43:43;23.23;;;11.83;;
75496;SDS011;64074;47.540;19.072;2023-02-28T22:46:52;22.45;;;12.43;;
75496;SDS011;64074;47.540;19.072;2023-02-28T22:49:55;23.85;;;12.20;;
75496;SDS011;64074;47.540;19.072;2023-02-28T22:52:58;23.85;;;11.98;;
75496;SDS011;64074;47.540;19.072;2023-02-28T22:56:01;24.37;;;12.63;;
75496;SDS011;64074;47.540;19.072;2023-02-28T22:59:05;27.50;;;11.90;;
75496;SDS011;64074;47.540;19.072;2023-02-28T23:02:08;24.08;;;12.57;;
75496;SDS011;64074;47.540;19.072;2023-02-28T23:05:12;25.85;;;12.13;;
75496;SDS011;64074;47.540;19.072;2023-02-28T23:08:16;25.40;;;12.95;;